Time;durP1;ratioP1;P1;durP2;ratioP2;P2;SDS_P1;SDS_P2;PMS_P1;PMS_P2;Temp;Humidity;BMP_temperature;BMP_pressure;BME280_temperature;BME280_humidity;BME280_pressure;Samples;Min_cycle;Max_cycle;Signal;HPM_P1;HPM_P2
2023/05/02 00:00:53;;;;;;;11.00;8.00;;;;;;;;;;4992576;28;20022;-74
2023/05/02 00:03:19;;;;;;;11.93;7.68;;;;;;;;;;4991509;28;20015;-75
2023/05/02 00:05:46;;;;;;;11.75;7.28;;;;;;;;;;4991239;28;20049;-74
2023/05/02 00:08:12;;;;;;;13.63;7.40;;;;;;;;;;4991356;28;20457;-75
2023/05/02 00:10:38;;;;;;;13.05;7.55;;;;;;;;;;4992449;28;20042;-74
2023/05/02 00:13:04;;;;;;;10.52;7.57;;;;;;;;;;4992400;28;20073;-75
2023/05/02 00:15:30;;;;;;;13.48;7.78;;;;;;;;;;4990967;28;20050;-75
2023/05/02 00:17:56;;;;;;;8.52;7.07;;;;;;;;;;4992175;28;20081;-74
2023/05/02 00:20:22;;;;;;;14.05;7.85;;;;;;;;;;4992274;28;20026;-74
2023/05/02 00:22:48;;;;;;;10.60;7.35;;;;;;;;;;4992327;28;20102;-74
2023/05/02 00:25:16;;;;;;;9.57;7.05;;;;;;;;;;4991640;28;20069;-73
2023/05/02 00:27:42;;;;;;;11.15;7.15;;;;;;;;;;4992123;28;20029;-74
2023/05/02 00:30:08;;;;;;;11.18;7.43;;;;;;;;;;4992202;28;20448;-73
2023/05/02 00:32:34;;;;;;;8.85;7.18;;;;;;;;;;4990862;28;20045;-74
2023/05/02 00:35:00;;;;;;;9.93;7.55;;;;;;;;;;4990468;28;20034;-73
2023/05/02 00:37:27;;;;;;;9.60;7.40;;;;;;;;;;4991815;28;20386;-74
2023/05/02 00:39:53;;;;;;;10.20;7.30;;;;;;;;;;4992129;28;20084;-73
2023/05/02 00:42:19;;;;;;;10.43;6.95;;;;;;;;;;4992262;28;20018;-74
2023/05/02 00:44:46;;;;;;;12.02;7.88;;;;;;;;;;4990829;28;20027;-73
2023/05/02 00:47:12;;;;;;;13.77;7.10;;;;;;;;;;4990519;28;20105;-74
2023/05/02 00:49:38;;;;;;;10.00;6.70;;;;;;;;;;4995629;28;20062;-75
2023/05/02 00:52:04;;;;;;;11.23;7.22;;;;;;;;;;5011672;28;20030;-74
2023/05/02 00:54:31;;;;;;;10.40;6.82;;;;;;;;;;5011640;28;20026;-74
2023/05/02 00:56:57;;;;;;;11.82;7.65;;;;;;;;;;5011451;28;20021;-74
2023/05/02 00:59:24;;;;;;;10.57;7.53;;;;;;;;;;5011434;28;20455;-74
2023/05/02 01:02:09;;;;;;;10.90;7.75;;;;;;;;;;5011446;28;20033;-74
2023/05/02 01:04:38;;;;;;;9.60;7.13;;;;;;;;;;5010188;28;20026;-74
2023/05/02 01:07:10;;;;;;;9.23;7.18;;;;;;;;;;5011321;28;20057;-74
2023/05/02 01:09:52;;;;;;;9.63;7.25;;;;;;;;;;5010232;28;20112;-74
2023/05/02 01:12:51;;;;;;;12.45;8.18;;;;;;;;;;5010104;28;20026;-73
2023/05/02 01:15:20;;;;;;;9.30;7.07;;;;;;;;;;4988768;28;20045;-74
2023/05/02 01:17:47;;;;;;;11.93;7.90;;;;;;;;;;5009664;28;20026;-74
2023/05/02 01:20:15;;;;;;;9.48;6.53;;;;;;;;;;5001907;28;20030;-74
2023/05/02 01:22:42;;;;;;;9.55;6.75;;;;;;;;;;4991844;28;20563;-74
2023/05/02 01:25:19;;;;;;;10.15;7.57;;;;;;;;;;4991658;28;20031;-74
2023/05/02 01:27:47;;;;;;;9.55;6.80;;;;;;;;;;4991689;28;20042;-74
2023/05/02 01:30:14;;;;;;;10.40;7.40;;;;;;;;;;4991940;28;20098;-74
2023/05/02 01:32:43;;;;;;;10.75;7.38;;;;;;;;;;4991798;28;20511;-75
2023/05/02 01:35:10;;;;;;;9.13;7.25;;;;;;;;;;4990075;28;20511;-74
2023/05/02 01:37:37;;;;;;;12.15;7.57;;;;;;;;;;4993386;28;20022;-74
2023/05/02 01:40:04;;;;;;;8.32;6.65;;;;;;;;;;4994453;28;20022;-74
2023/05/02 01:42:32;;;;;;;9.15;7.10;;;;;;;;;;4995741;28;20101;-73
2023/05/02 01:44:59;;;;;;;8.38;7.25;;;;;;;;;;4995373;28;20452;-74
2023/05/02 01:47:26;;;;;;;9.13;6.85;;;;;;;;;;4993715;28;20026;-74
2023/05/02 01:49:52;;;;;;;8.95;6.15;;;;;;;;;;4993556;28;20072;-73
2023/05/02 01:52:21;;;;;;;10.98;7.22;;;;;;;;;;4994994;28;20496;-73
2023/05/02 01:54:47;;;;;;;11.02;7.10;;;;;;;;;;4993284;28;20022;-74
2023/05/02 01:57:15;;;;;;;9.00;6.72;;;;;;;;;;4994546;28;20023;-74
2023/05/02 01:59:43;;;;;;;10.15;6.97;;;;;;;;;;4994568;28;20041;-73
2023/05/02 02:02:11;;;;;;;7.93;6.60;;;;;;;;;;4994644;28;20023;-73
2023/05/02 02:04:38;;;;;;;8.88;6.80;;;;;;;;;;4995941;28;20025;-73
2023/05/02 02:07:06;;;;;;;7.55;6.22;;;;;;;;;;5012715;28;20033;-74
2023/05/02 02:09:32;;;;;;;12.18;7.45;;;;;;;;;;5013704;28;20052;-73
2023/05/02 02:12:12;;;;;;;11.55;7.13;;;;;;;;;;5011884;28;20390;-73
2023/05/02 02:14:42;;;;;;;12.23;6.57;;;;;;;;;;5012622;28;20032;-74
2023/05/02 02:17:12;;;;;;;10.03;7.10;;;;;;;;;;5013615;28;20025;-73
2023/05/02 02:19:39;;;;;;;9.73;6.90;;;;;;;;;;5009567;28;20488;-73
2023/05/02 02:22:07;;;;;;;9.00;6.70;;;;;;;;;;4994338;28;20045;-73
2023/05/02 02:24:34;;;;;;;8.05;6.28;;;;;;;;;;4994092;28;20044;-73
2023/05/02 02:27:01;;;;;;;10.50;6.50;;;;;;;;;;4992768;28;20117;-73
2023/05/02 02:29:27;;;;;;;11.18;6.57;;;;;;;;;;4992628;28;20110;-73
2023/05/02 02:31:53;;;;;;;8.68;6.28;;;;;;;;;;4994126;28;20152;-73
2023/05/02 02:34:20;;;;;;;10.18;6.80;;;;;;;;;;4994015;28;20034;-73
2023/05/02 02:37:04;;;;;;;9.25;6.82;;;;;;;;;;4992597;28;20109;-73
2023/05/02 02:39:42;;;;;;;8.63;6.28;;;;;;;;;;4993850;28;20048;-73
2023/05/02 02:42:11;;;;;;;8.35;6.35;;;;;;;;;;4993951;28;20049;-73
2023/05/02 02:44:58;;;;;;;9.40;7.03;;;;;;;;;;4993843;28;20026;-74
2023/05/02 02:47:31;;;;;;;10.70;6.15;;;;;;;;;;4953044;28;20039;-73
2023/05/02 02:50:11;;;;;;;7.78;6.32;;;;;;;;;;4992622;28;20497;-74
2023/05/02 02:52:45;;;;;;;10.30;6.47;;;;;;;;;;4993787;28;20041;-74
2023/05/02 02:55:19;;;;;;;9.80;6.75;;;;;;;;;;4993541;28;20034;-73
2023/05/02 02:57:50;;;;;;;9.38;6.82;;;;;;;;;;4992226;28;20030;-73
2023/05/02 03:00:18;;;;;;;11.43;7.72;;;;;;;;;;4992338;28;20026;-74
2023/05/02 03:02:46;;;;;;;9.02;6.75;;;;;;;;;;4993747;28;20023;-74
2023/05/02 03:05:12;;;;;;;11.20;7.75;;;;;;;;;;4992165;28;20061;-73
2023/05/02 03:07:39;;;;;;;9.05;6.60;;;;;;;;;;4992101;28;20030;-74
2023/05/02 03:10:05;;;;;;;11.68;7.07;;;;;;;;;;4993421;28;20455;-73
2023/05/02 03:12:31;;;;;;;9.48;6.30;;;;;;;;;;4992205;28;20380;-73
2023/05/02 03:15:04;;;;;;;9.60;6.43;;;;;;;;;;4993043;28;20026;-73
2023/05/02 03:17:30;;;;;;;8.70;5.82;;;;;;;;;;4991708;28;20084;-74
2023/05/02 03:19:56;;;;;;;9.13;6.13;;;;;;;;;;4991758;28;20026;-73
2023/05/02 03:22:22;;;;;;;10.30;6.65;;;;;;;;;;4991876;28;20030;-73
2023/05/02 03:24:48;;;;;;;7.65;6.25;;;;;;;;;;4993012;28;20036;-73
2023/05/02 03:27:14;;;;;;;9.52;6.32;;;;;;;;;;4991549;28;20026;-73
2023/05/02 03:29:40;;;;;;;9.50;6.35;;;;;;;;;;4992983;28;20026;-73
2023/05/02 03:32:07;;;;;;;9.90;6.25;;;;;;;;;;4992938;28;20050;-74
2023/05/02 03:34:33;;;;;;;10.85;6.05;;;;;;;;;;4991628;28;20480;-73
2023/05/02 03:36:59;;;;;;;7.55;6.10;;;;;;;;;;4992772;28;20076;-75
2023/05/02 03:39:25;;;;;;;9.27;6.18;;;;;;;;;;4992745;28;20029;-72
2023/05/02 03:41:51;;;;;;;7.68;6.47;;;;;;;;;;4991295;28;20058;-73
2023/05/02 03:44:17;;;;;;;7.32;6.35;;;;;;;;;;4992942;28;20054;-73
2023/05/02 03:46:43;;;;;;;8.52;6.20;;;;;;;;;;4992254;28;20040;-73
2023/05/02 03:49:09;;;;;;;10.32;7.18;;;;;;;;;;4992676;28;20034;-73
2023/05/02 03:51:35;;;;;;;10.23;7.18;;;;;;;;;;4992597;28;20027;-73
2023/05/02 03:54:02;;;;;;;10.68;7.00;;;;;;;;;;4992673;28;20022;-73
2023/05/02 03:56:28;;;;;;;8.93;6.80;;;;;;;;;;4991347;28;20030;-73
2023/05/02 03:58:54;;;;;;;14.57;7.10;;;;;;;;;;4990261;28;20026;-73
2023/05/02 04:01:20;;;;;;;8.45;6.63;;;;;;;;;;4992339;28;20029;-73
2023/05/02 04:03:46;;;;;;;9.20;6.65;;;;;;;;;;4991365;28;20026;-73
2023/05/02 04:06:12;;;;;;;11.90;6.72;;;;;;;;;;4992394;28;20027;-73
2023/05/02 04:08:38;;;;;;;11.23;7.65;;;;;;;;;;4992177;28;20030;-73
2023/05/02 04:11:05;;;;;;;8.27;6.85;;;;;;;;;;4991022;28;20025;-74
2023/05/02 04:13:31;;;;;;;9.05;7.03;;;;;;;;;;4992581;28;20018;-73
2023/05/02 04:15:57;;;;;;;8.50;6.50;;;;;;;;;;4990838;28;20495;-73
2023/05/02 04:18:23;;;;;;;9.85;7.22;;;;;;;;;;4992421;28;20026;-73
2023/05/02 04:20:49;;;;;;;9.75;6.80;;;;;;;;;;4990928;28;20027;-74
2023/05/02 04:23:16;;;;;;;11.82;7.10;;;;;;;;;;4992447;28;20041;-74
2023/05/02 04:25:50;;;;;;;8.07;6.47;;;;;;;;;;4991968;28;20405;-74
2023/05/02 04:28:16;;;;;;;10.85;7.13;;;;;;;;;;4990598;28;20508;-74
2023/05/02 04:30:42;;;;;;;8.10;6.90;;;;;;;;;;4990693;28;20030;-74
2023/05/02 04:33:08;;;;;;;14.32;7.25;;;;;;;;;;4990761;28;20112;-74
2023/05/02 04:35:34;;;;;;;10.23;6.60;;;;;;;;;;4990454;28;20061;-74
2023/05/02 04:38:00;;;;;;;13.55;6.65;;;;;;;;;;4990481;28;20031;-75
2023/05/02 04:40:26;;;;;;;8.30;6.28;;;;;;;;;;4990931;28;20023;-74
2023/05/02 04:42:52;;;;;;;9.48;6.53;;;;;;;;;;4990337;28;20050;-74
2023/05/02 04:45:18;;;;;;;10.13;6.13;;;;;;;;;;4992326;28;20030;-74
2023/05/02 04:47:45;;;;;;;7.45;6.15;;;;;;;;;;4990328;28;20022;-74
2023/05/02 04:50:11;;;;;;;8.98;6.00;;;;;;;;;;4992180;28;20029;-74
2023/05/02 04:52:37;;;;;;;8.98;6.25;;;;;;;;;;4992195;28;20026;-74
2023/05/02 04:55:03;;;;;;;6.97;5.65;;;;;;;;;;4992189;28;20088;-75
2023/05/02 04:57:29;;;;;;;8.77;5.70;;;;;;;;;;4992034;28;20050;-74
2023/05/02 04:59:55;;;;;;;9.15;6.35;;;;;;;;;;4991095;28;20035;-74
2023/05/02 05:02:22;;;;;;;6.70;5.60;;;;;;;;;;4992957;28;20030;-74
2023/05/02 05:04:48;;;;;;;9.55;6.15;;;;;;;;;;4991586;28;20500;-73
2023/05/02 05:07:14;;;;;;;7.65;5.65;;;;;;;;;;4992841;28;20489;-74
2023/05/02 05:09:40;;;;;;;8.25;6.05;;;;;;;;;;4991317;28;20034;-74
2023/05/02 05:12:06;;;;;;;9.02;5.72;;;;;;;;;;4995628;28;20041;-75
2023/05/02 05:14:33;;;;;;;7.20;5.15;;;;;;;;;;4995508;28;20069;-74
2023/05/02 05:16:59;;;;;;;8.05;6.20;;;;;;;;;;4995249;28;20053;-74
2023/05/02 05:19:25;;;;;;;9.40;6.20;;;;;;;;;;4994289;28;20034;-76
2023/05/02 05:21:52;;;;;;;10.73;7.05;;;;;;;;;;4995435;28;20030;-74
2023/05/02 05:24:18;;;;;;;9.27;5.63;;;;;;;;;;4993883;28;20029;-74
2023/05/02 05:26:44;;;;;;;8.25;5.85;;;;;;;;;;4995242;28;20030;-75
2023/05/02 05:29:10;;;;;;;9.30;6.30;;;;;;;;;;4995206;28;20026;-74
2023/05/02 05:31:37;;;;;;;5.18;4.78;;;;;;;;;;4995427;28;20037;-75
2023/05/02 05:34:03;;;;;;;10.88;5.75;;;;;;;;;;4993942;28;20030;-75
2023/05/02 05:36:30;;;;;;;10.73;5.90;;;;;;;;;;4993821;28;20523;-74
2023/05/02 05:38:56;;;;;;;9.10;5.70;;;;;;;;;;4993778;28;20030;-74
2023/05/02 05:41:23;;;;;;;9.52;5.80;;;;;;;;;;4994709;28;20030;-74
2023/05/02 05:43:49;;;;;;;8.00;5.55;;;;;;;;;;4993873;28;20046;-74
2023/05/02 05:46:15;;;;;;;10.70;5.45;;;;;;;;;;4993820;28;20030;-74
2023/05/02 05:48:41;;;;;;;8.05;5.10;;;;;;;;;;4993671;28;20030;-75
2023/05/02 05:51:07;;;;;;;7.47;5.43;;;;;;;;;;4993900;28;20531;-74
2023/05/02 05:53:34;;;;;;;8.30;5.25;;;;;;;;;;4993845;28;20030;-74
2023/05/02 05:56:08;;;;;;;7.68;5.22;;;;;;;;;;4993866;28;20054;-74
2023/05/02 05:58:34;;;;;;;12.32;5.38;;;;;;;;;;4995946;28;20036;-74
2023/05/02 06:01:01;;;;;;;9.98;5.30;;;;;;;;;;4995768;28;20150;-74
2023/05/02 06:03:27;;;;;;;8.60;5.43;;;;;;;;;;4994178;28;20046;-73
2023/05/02 06:05:53;;;;;;;8.07;4.70;;;;;;;;;;4995526;28;20018;-74
2023/05/02 06:08:20;;;;;;;7.07;4.97;;;;;;;;;;4995525;28;20089;-74
2023/05/02 06:10:46;;;;;;;7.15;4.85;;;;;;;;;;4994066;28;20026;-75
2023/05/02 06:13:12;;;;;;;7.93;4.97;;;;;;;;;;4995524;28;20110;-73
2023/05/02 06:15:38;;;;;;;12.88;5.25;;;;;;;;;;4994769;28;20505;-76
2023/05/02 06:18:04;;;;;;;7.82;5.20;;;;;;;;;;4993548;28;20497;-75
2023/05/02 06:20:30;;;;;;;7.97;4.65;;;;;;;;;;4993773;28;20045;-75
2023/05/02 06:22:56;;;;;;;10.00;5.30;;;;;;;;;;4992837;28;20030;-73
2023/05/02 06:25:23;;;;;;;9.57;5.47;;;;;;;;;;4993980;28;20087;-74
2023/05/02 06:27:49;;;;;;;7.82;4.78;;;;;;;;;;4994075;28;20022;-73
2023/05/02 06:30:15;;;;;;;7.90;4.63;;;;;;;;;;4993940;28;20031;-74
2023/05/02 06:32:42;;;;;;;7.70;4.18;;;;;;;;;;4994213;28;20026;-75
2023/05/02 06:35:09;;;;;;;7.45;4.88;;;;;;;;;;4992598;28;20034;-74
2023/05/02 06:37:35;;;;;;;8.25;4.75;;;;;;;;;;4993811;28;20055;-74
2023/05/02 06:40:02;;;;;;;11.32;4.78;;;;;;;;;;4992447;28;20444;-74
2023/05/02 06:42:28;;;;;;;7.32;4.60;;;;;;;;;;4993732;28;20027;-74
2023/05/02 06:44:55;;;;;;;6.68;4.85;;;;;;;;;;4992517;28;20133;-74
2023/05/02 06:47:23;;;;;;;7.18;4.40;;;;;;;;;;4993603;28;20034;-74
2023/05/02 06:49:49;;;;;;;9.32;4.75;;;;;;;;;;4993658;28;20393;-75
2023/05/02 06:52:15;;;;;;;5.95;4.53;;;;;;;;;;4992559;28;20041;-76
2023/05/02 06:54:41;;;;;;;10.07;4.50;;;;;;;;;;4993668;28;20510;-74
2023/05/02 06:57:07;;;;;;;5.85;3.90;;;;;;;;;;4992089;28;20026;-74
2023/05/02 06:59:33;;;;;;;6.50;4.35;;;;;;;;;;4992845;28;20030;-74
2023/05/02 07:01:59;;;;;;;6.28;3.88;;;;;;;;;;4992303;28;20505;-75
2023/05/02 07:04:25;;;;;;;4.95;3.92;;;;;;;;;;4993081;28;20050;-74
2023/05/02 07:06:51;;;;;;;4.97;3.92;;;;;;;;;;4994119;28;20093;-74
2023/05/02 07:09:18;;;;;;;7.13;3.80;;;;;;;;;;4993794;28;20623;-75
2023/05/02 07:11:44;;;;;;;7.13;3.60;;;;;;;;;;4993872;28;20026;-75
2023/05/02 07:14:10;;;;;;;7.28;3.83;;;;;;;;;;4993675;28;20029;-75
2023/05/02 07:16:36;;;;;;;9.65;4.10;;;;;;;;;;4992724;28;20080;-75
2023/05/02 07:19:03;;;;;;;8.75;3.67;;;;;;;;;;4993876;28;20034;-74
2023/05/02 07:21:29;;;;;;;7.35;3.38;;;;;;;;;;4991411;28;20572;-75
2023/05/02 07:23:56;;;;;;;5.85;3.65;;;;;;;;;;4991312;28;20037;-74
2023/05/02 07:26:23;;;;;;;5.47;3.08;;;;;;;;;;4992131;28;20451;-74
2023/05/02 07:28:49;;;;;;;5.20;3.25;;;;;;;;;;4993289;28;20026;-75
2023/05/02 07:31:15;;;;;;;5.10;3.05;;;;;;;;;;4991804;28;20165;-74
2023/05/02 07:33:41;;;;;;;5.20;3.53;;;;;;;;;;4991002;28;20129;-75
2023/05/02 07:36:07;;;;;;;10.18;3.60;;;;;;;;;;4993235;28;20037;-77
2023/05/02 07:38:33;;;;;;;5.18;3.45;;;;;;;;;;4990673;28;20497;-76
2023/05/02 07:41:00;;;;;;;9.38;4.13;;;;;;;;;;4991598;28;20026;-76
2023/05/02 07:43:26;;;;;;;5.53;4.30;;;;;;;;;;4991992;28;20042;-76
2023/05/02 07:45:53;;;;;;;7.78;3.95;;;;;;;;;;4991218;28;20026;-76
2023/05/02 07:48:19;;;;;;;7.43;4.60;;;;;;;;;;4990192;28;20030;-75
2023/05/02 07:50:45;;;;;;;9.05;4.90;;;;;;;;;;4992818;28;20095;-75
2023/05/02 07:53:11;;;;;;;6.65;4.55;;;;;;;;;;4991421;28;20416;-75
2023/05/02 07:55:37;;;;;;;4.72;4.15;;;;;;;;;;4991784;28;20046;-75
2023/05/02 07:58:03;;;;;;;7.82;4.30;;;;;;;;;;4992530;28;20022;-75
2023/05/02 08:00:29;;;;;;;7.32;4.50;;;;;;;;;;4992621;28;20097;-74
2023/05/02 08:02:56;;;;;;;8.00;4.57;;;;;;;;;;4992534;28;20029;-74
2023/05/02 08:05:22;;;;;;;8.75;5.07;;;;;;;;;;4991185;28;20030;-75
2023/05/02 08:07:48;;;;;;;6.30;4.40;;;;;;;;;;4991172;28;20026;-75
2023/05/02 08:10:14;;;;;;;5.45;4.68;;;;;;;;;;4992291;28;20038;-75
2023/05/02 08:12:41;;;;;;;7.68;4.95;;;;;;;;;;4989820;28;20108;-74
2023/05/02 08:15:08;;;;;;;10.32;5.53;;;;;;;;;;4991123;28;20030;-75
2023/05/02 08:17:34;;;;;;;7.40;4.57;;;;;;;;;;4991797;28;20068;-75
2023/05/02 08:20:01;;;;;;;6.68;4.43;;;;;;;;;;4991055;28;20121;-75
2023/05/02 08:22:27;;;;;;;6.60;4.55;;;;;;;;;;4991914;28;20073;-74
2023/05/02 08:24:53;;;;;;;8.25;4.80;;;;;;;;;;4991900;28;20034;-75
2023/05/02 08:27:20;;;;;;;7.47;4.65;;;;;;;;;;4991094;28;20023;-74
2023/05/02 08:29:46;;;;;;;10.45;5.10;;;;;;;;;;4991323;28;20035;-74
2023/05/02 08:32:12;;;;;;;5.68;4.20;;;;;;;;;;4992272;28;20041;-74
2023/05/02 08:34:38;;;;;;;7.07;4.22;;;;;;;;;;4992424;28;20029;-74
2023/05/02 08:37:08;;;;;;;6.45;3.95;;;;;;;;;;4990954;28;20072;-74
2023/05/02 08:39:34;;;;;;;5.50;4.63;;;;;;;;;;4990965;28;20026;-75
2023/05/02 08:42:01;;;;;;;4.82;4.00;;;;;;;;;;4992228;28;20101;-74
2023/05/02 08:44:27;;;;;;;7.18;4.32;;;;;;;;;;4990922;28;20027;-75
2023/05/02 08:46:54;;;;;;;5.03;4.20;;;;;;;;;;4995432;28;20088;-75
2023/05/02 08:49:20;;;;;;;8.00;4.18;;;;;;;;;;4996685;28;20109;-75
2023/05/02 08:51:50;;;;;;;6.90;4.47;;;;;;;;;;4995449;28;20030;-75
2023/05/02 08:54:16;;;;;;;5.07;4.30;;;;;;;;;;4996394;28;20109;-74
2023/05/02 08:56:43;;;;;;;8.10;4.82;;;;;;;;;;4996016;28;20488;-74
2023/05/02 08:59:09;;;;;;;6.00;3.88;;;;;;;;;;4995045;28;20034;-74
2023/05/02 09:01:35;;;;;;;8.15;3.80;;;;;;;;;;4996331;28;20029;-74
2023/05/02 09:04:01;;;;;;;7.68;3.80;;;;;;;;;;4996148;28;20140;-74
2023/05/02 09:06:28;;;;;;;5.05;3.90;;;;;;;;;;4996467;28;20026;-74
2023/05/02 09:08:54;;;;;;;6.38;4.05;;;;;;;;;;4994706;28;20088;-74
2023/05/02 09:11:21;;;;;;;8.95;3.83;;;;;;;;;;4994434;28;20042;-74
2023/05/02 09:13:47;;;;;;;6.05;4.00;;;;;;;;;;4995932;28;20019;-74
2023/05/02 09:16:17;;;;;;;8.93;4.15;;;;;;;;;;4995711;28;20030;-75
2023/05/02 09:18:47;;;;;;;9.25;4.18;;;;;;;;;;4995854;28;20022;-74
2023/05/02 09:21:13;;;;;;;6.47;3.85;;;;;;;;;;4994443;28;20077;-74
2023/05/02 09:23:39;;;;;;;12.30;4.72;;;;;;;;;;4995658;28;20030;-74
2023/05/02 09:26:11;;;;;;;8.07;4.80;;;;;;;;;;4994260;28;20502;-74
2023/05/02 09:28:38;;;;;;;9.27;4.68;;;;;;;;;;4995575;28;20058;-74
2023/05/02 09:31:08;;;;;;;6.93;4.50;;;;;;;;;;4994252;28;20061;-74
2023/05/02 09:33:35;;;;;;;7.15;4.20;;;;;;;;;;4994320;28;20040;-74
2023/05/02 09:36:01;;;;;;;8.88;4.63;;;;;;;;;;4993809;28;20081;-75
2023/05/02 09:38:27;;;;;;;6.30;4.15;;;;;;;;;;4995224;28;20397;-76
2023/05/02 09:40:56;;;;;;;8.93;5.10;;;;;;;;;;4995634;28;20031;-75
2023/05/02 09:43:22;;;;;;;8.20;5.63;;;;;;;;;;4995359;28;20532;-75
2023/05/02 09:46:07;;;;;;;10.35;6.05;;;;;;;;;;4995269;28;20124;-74
2023/05/02 09:48:50;;;;;;;9.65;6.47;;;;;;;;;;4994188;28;20392;-74
2023/05/02 09:51:17;;;;;;;11.32;6.40;;;;;;;;;;4993808;28;20034;-74
2023/05/02 09:53:44;;;;;;;9.32;7.25;;;;;;;;;;4993979;28;20031;-74
2023/05/02 09:56:10;;;;;;;10.82;6.72;;;;;;;;;;4994356;28;20038;-75
2023/05/02 09:58:36;;;;;;;8.88;6.72;;;;;;;;;;4993449;28;20110;-74
2023/05/02 10:01:02;;;;;;;10.52;7.75;;;;;;;;;;4993898;28;20027;-74
2023/05/02 10:03:30;;;;;;;15.80;7.65;;;;;;;;;;4994981;28;20023;-75
2023/05/02 10:05:56;;;;;;;13.85;7.68;;;;;;;;;;4993938;28;20686;-75
2023/05/02 10:08:26;;;;;;;9.45;6.80;;;;;;;;;;4993902;28;20508;-74
2023/05/02 10:10:53;;;;;;;9.30;6.32;;;;;;;;;;4994146;28;20085;-74
2023/05/02 10:13:21;;;;;;;12.45;7.75;;;;;;;;;;4993396;28;20022;-74
2023/05/02 10:15:49;;;;;;;9.20;7.35;;;;;;;;;;4994703;28;20038;-74
2023/05/02 10:18:21;;;;;;;7.90;6.32;;;;;;;;;;4994636;28;20022;-74
2023/05/02 10:20:51;;;;;;;8.75;6.90;;;;;;;;;;4995010;28;20027;-74
2023/05/02 10:23:18;;;;;;;9.52;6.55;;;;;;;;;;4994511;28;20026;-75
2023/05/02 10:25:45;;;;;;;11.40;6.63;;;;;;;;;;4994859;28;20125;-74
2023/05/02 10:28:11;;;;;;;12.05;7.35;;;;;;;;;;4993153;28;20044;-74
2023/05/02 10:30:37;;;;;;;11.23;7.95;;;;;;;;;;4993485;28;20073;-74
2023/05/02 10:33:04;;;;;;;10.30;7.75;;;;;;;;;;4993146;28;20060;-75
2023/05/02 10:35:30;;;;;;;9.15;7.38;;;;;;;;;;4993236;28;20030;-75
2023/05/02 10:37:56;;;;;;;8.52;6.38;;;;;;;;;;4994734;28;20026;-75
2023/05/02 10:40:23;;;;;;;10.55;7.68;;;;;;;;;;4995456;28;20396;-75
2023/05/02 10:42:51;;;;;;;13.05;7.65;;;;;;;;;;4995886;28;20097;-75
2023/05/02 10:45:32;;;;;;;13.02;7.07;;;;;;;;;;4994458;28;20088;-74
2023/05/02 10:48:14;;;;;;;11.70;7.35;;;;;;;;;;4994505;28;20026;-74
2023/05/02 10:50:46;;;;;;;8.13;7.30;;;;;;;;;;4995660;28;20523;-75
2023/05/02 10:53:32;;;;;;;9.82;7.40;;;;;;;;;;4996907;28;20102;-74
2023/05/02 10:56:11;;;;;;;10.98;7.53;;;;;;;;;;4977906;28;20027;-75
2023/05/02 10:58:37;;;;;;;13.25;7.72;;;;;;;;;;4995208;28;20025;-75
2023/05/02 11:01:22;;;;;;;11.07;7.93;;;;;;;;;;4994641;28;20515;-75
2023/05/02 11:03:55;;;;;;;11.20;7.25;;;;;;;;;;4994604;28;20018;-74
2023/05/02 11:06:21;;;;;;;17.88;9.05;;;;;;;;;;4992689;28;20085;-74
2023/05/02 11:08:47;;;;;;;11.93;8.10;;;;;;;;;;4993478;28;20037;-74
2023/05/02 11:11:32;;;;;;;16.63;8.15;;;;;;;;;;4992406;28;20105;-75
2023/05/02 11:13:58;;;;;;;11.85;8.63;;;;;;;;;;4993712;28;20030;-75
2023/05/02 11:16:24;;;;;;;10.82;8.93;;;;;;;;;;4993798;28;20085;-75
2023/05/02 11:19:00;;;;;;;15.18;8.75;;;;;;;;;;4993392;28;20412;-75
2023/05/02 11:21:27;;;;;;;14.73;10.93;;;;;;;;;;4992754;28;20378;-75
2023/05/02 11:24:13;;;;;;;14.18;8.80;;;;;;;;;;4994011;28;20068;-75
2023/05/02 11:26:39;;;;;;;13.13;8.50;;;;;;;;;;4994070;28;20062;-75
2023/05/02 11:29:05;;;;;;;10.55;8.65;;;;;;;;;;4992244;28;20031;-75
2023/05/02 11:31:31;;;;;;;11.75;8.05;;;;;;;;;;4994094;28;20399;-74
2023/05/02 11:33:58;;;;;;;11.48;8.20;;;;;;;;;;4992719;28;20022;-74
2023/05/02 11:36:34;;;;;;;9.30;7.53;;;;;;;;;;4993549;28;20027;-74
2023/05/02 11:39:07;;;;;;;9.13;7.72;;;;;;;;;;4991819;28;20022;-74
2023/05/02 11:41:43;;;;;;;9.77;7.85;;;;;;;;;;4991915;28;20026;-74
2023/05/02 11:44:09;;;;;;;11.15;7.70;;;;;;;;;;4991172;28;20022;-74
2023/05/02 11:46:40;;;;;;;12.73;7.82;;;;;;;;;;4990750;28;20555;-74
2023/05/02 11:49:12;;;;;;;;;;;;;;;;;;4991030;28;20038;-75
2023/05/02 11:51:38;;;;;;;13.93;9.18;;;;;;;;;;4992449;28;19913;-75
2023/05/02 11:54:06;;;;;;;12.68;8.45;;;;;;;;;;4991512;28;20077;-75
2023/05/02 11:56:33;;;;;;;13.52;8.05;;;;;;;;;;4993083;28;20480;-74
2023/05/02 11:58:59;;;;;;;10.07;8.20;;;;;;;;;;4992999;28;20105;-74
2023/05/02 12:01:26;;;;;;;13.30;8.52;;;;;;;;;;4991721;28;20100;-73
2023/05/02 12:04:01;;;;;;;10.68;7.47;;;;;;;;;;4991119;28;20570;-74
2023/05/02 12:06:27;;;;;;;11.23;8.45;;;;;;;;;;4991693;28;20083;-74
2023/05/02 12:09:05;;;;;;;10.77;7.85;;;;;;;;;;4991722;28;20065;-75
2023/05/02 12:11:31;;;;;;;9.90;7.47;;;;;;;;;;4991556;28;20030;-74
2023/05/02 12:13:57;;;;;;;11.43;7.57;;;;;;;;;;4992925;28;20033;-74
2023/05/02 12:16:23;;;;;;;10.30;6.63;;;;;;;;;;4992512;28;20477;-74
2023/05/02 12:18:50;;;;;;;14.05;7.10;;;;;;;;;;4992107;28;20110;-75
2023/05/02 12:21:16;;;;;;;11.25;7.07;;;;;;;;;;4992072;28;20068;-75
2023/05/02 12:23:42;;;;;;;7.97;6.03;;;;;;;;;;4992580;28;20029;-75
2023/05/02 12:26:18;;;;;;;8.65;6.53;;;;;;;;;;5015007;23;20664;-74
2023/05/02 12:28:49;;;;;;;8.45;6.50;;;;;;;;;;4990905;28;20629;-75
2023/05/02 12:31:15;;;;;;;8.50;6.60;;;;;;;;;;4992183;28;20106;-76
2023/05/02 12:33:47;;;;;;;8.68;6.65;;;;;;;;;;4992494;28;20254;-76
2023/05/02 12:36:13;;;;;;;11.05;6.65;;;;;;;;;;4992707;28;20031;-76
2023/05/02 12:38:39;;;;;;;12.05;6.78;;;;;;;;;;4993633;28;20070;-76
2023/05/02 12:41:05;;;;;;;10.38;7.38;;;;;;;;;;4996318;28;20022;-76
2023/05/02 12:43:47;;;;;;;10.85;7.57;;;;;;;;;;4994282;28;20106;-75
2023/05/02 12:46:13;;;;;;;11.65;6.63;;;;;;;;;;4992128;28;20022;-75
2023/05/02 12:48:40;;;;;;;11.25;7.75;;;;;;;;;;4991810;28;20023;-75
2023/05/02 12:51:06;;;;;;;8.93;6.45;;;;;;;;;;4992041;28;20038;-75
2023/05/02 12:53:39;;;;;;;8.93;6.68;;;;;;;;;;4992152;28;20029;-76
2023/05/02 12:56:06;;;;;;;8.02;6.97;;;;;;;;;;4991933;28;20031;-73
2023/05/02 12:58:40;;;;;;;10.32;7.07;;;;;;;;;;4991865;28;20378;-75
2023/05/02 13:01:07;;;;;;;10.02;7.10;;;;;;;;;;4992301;28;20488;-75
2023/05/02 13:03:33;;;;;;;9.00;7.20;;;;;;;;;;4992597;28;20465;-75
2023/05/02 13:05:59;;;;;;;7.97;6.63;;;;;;;;;;4992797;28;20026;-76
2023/05/02 13:08:25;;;;;;;8.90;6.88;;;;;;;;;;4992445;28;20037;-77
2023/05/02 13:10:52;;;;;;;10.43;7.53;;;;;;;;;;4992697;28;20034;-76
2023/05/02 13:13:18;;;;;;;11.35;7.28;;;;;;;;;;4991737;28;20026;-75
2023/05/02 13:15:45;;;;;;;12.35;8.68;;;;;;;;;;4991507;28;20045;-75
2023/05/02 13:18:11;;;;;;;8.15;7.32;;;;;;;;;;4991381;28;20023;-75
2023/05/02 13:20:37;;;;;;;10.60;8.07;;;;;;;;;;4991781;28;20026;-75
2023/05/02 13:23:03;;;;;;;9.68;7.03;;;;;;;;;;4991866;28;20018;-75
2023/05/02 13:25:30;;;;;;;14.55;7.47;;;;;;;;;;4991559;28;20135;-76
2023/05/02 13:27:56;;;;;;;9.27;7.20;;;;;;;;;;4992709;28;20037;-75
2023/05/02 13:30:22;;;;;;;10.90;7.82;;;;;;;;;;4994514;28;20026;-76
2023/05/02 13:32:48;;;;;;;10.15;6.75;;;;;;;;;;4996298;28;20026;-76
2023/05/02 13:35:14;;;;;;;8.95;6.53;;;;;;;;;;4995457;28;20374;-77
2023/05/02 13:37:40;;;;;;;10.25;5.93;;;;;;;;;;4977348;28;20117;-76
2023/05/02 13:40:07;;;;;;;6.10;5.53;;;;;;;;;;4995376;28;20080;-76
2023/05/02 13:42:33;;;;;;;7.85;5.80;;;;;;;;;;4977766;28;20473;-74
2023/05/02 13:45:02;;;;;;;10.05;6.65;;;;;;;;;;4977472;28;20041;-76
2023/05/02 13:47:29;;;;;;;7.78;5.78;;;;;;;;;;4977162;28;20034;-76
2023/05/02 13:49:55;;;;;;;8.70;6.05;;;;;;;;;;4994867;28;20477;-76
2023/05/02 13:52:21;;;;;;;11.95;7.00;;;;;;;;;;4995070;28;20042;-75
2023/05/02 13:54:47;;;;;;;9.02;8.10;;;;;;;;;;4994802;28;20041;-76
2023/05/02 13:57:13;;;;;;;12.57;7.65;;;;;;;;;;4995026;28;20030;-75
2023/05/02 13:59:39;;;;;;;9.15;8.13;;;;;;;;;;4994816;28;20101;-75
2023/05/02 14:02:05;;;;;;;12.05;8.80;;;;;;;;;;4994834;28;20022;-76
2023/05/02 14:04:31;;;;;;;15.50;8.57;;;;;;;;;;4994281;28;20275;-76
2023/05/02 14:06:57;;;;;;;13.32;9.18;;;;;;;;;;4994545;28;20065;-76
2023/05/02 14:09:24;;;;;;;12.75;9.63;;;;;;;;;;4994352;28;20129;-76
2023/05/02 14:11:50;;;;;;;13.95;10.15;;;;;;;;;;4994407;28;20025;-75
2023/05/02 14:14:16;;;;;;;11.55;10.35;;;;;;;;;;4994278;28;20034;-76
2023/05/02 14:16:42;;;;;;;14.13;9.38;;;;;;;;;;4976893;28;20030;-75
2023/05/02 14:19:08;;;;;;;13.75;10.20;;;;;;;;;;4993899;28;20018;-75
2023/05/02 14:21:34;;;;;;;12.45;9.68;;;;;;;;;;4994314;28;20065;-76
2023/05/02 14:24:00;;;;;;;11.27;9.82;;;;;;;;;;4994353;28;20026;-76
2023/05/02 14:26:26;;;;;;;17.33;10.50;;;;;;;;;;4993999;28;20038;-76
2023/05/02 14:28:52;;;;;;;17.05;10.43;;;;;;;;;;4994035;28;20118;-75
2023/05/02 14:31:18;;;;;;;11.63;10.35;;;;;;;;;;4994358;28;20392;-75
2023/05/02 14:33:44;;;;;;;16.25;10.70;;;;;;;;;;4994010;28;20512;-76
2023/05/02 14:36:11;;;;;;;14.32;9.52;;;;;;;;;;4994085;28;20026;-75
2023/05/02 14:38:37;;;;;;;14.30;9.35;;;;;;;;;;4994150;28;20026;-75
2023/05/02 14:41:04;;;;;;;12.15;10.07;;;;;;;;;;4993889;28;20437;-76